Montmelo, Spain
Current Conditions -  °F | °C
As of 3:00 PM on Monday 20 Oct 2014 (Local Time) from LELL Reporting Station
Clear Clear  
Wind Chill: 84°   Ceiling: Unl
Heat Index: 84°   Visibility: 6mi
Dew Point: 57°   Wind: 3mph
Humidity: 40%   Direction: 190°S
Pressure: 30.12"   Gusts: NA
Location:  41.55°N, 2.24°E
Report Text: LELL 201300Z 19003KT 150V270 CAVOK 29/14 Q1020
Loading
Personal Weather Stations






























Interactive Weather Map New forecast layout! Learn more

10-Day Weather Forecast

Advertisements
Track Severe Weather on mobile